Luís Moreira

Olheiro - Atlético Mineiro
17 Jul 2027
Sábado
Processo

Personalidade

Adaptabilidade (3) Ambição (11) Controvérsia (10) Lealdade (18) Pressão (4) Profissionalismo (5) Espírito Esportivo (17) Temperamento (3)

Perfil

Estilo de Treinamento Democrático
Licença Nacional A
Determinação 6
Gestão de Pessoas 14
Motivação 9
Disciplina 15
Satisfação no Trabalho
100%
Fadiga
0%
Função Olheiro
Salário 40.2K p/s
Contrato 14.03.2030

Desempenho

Comportamento Bom
Eficácia do Treinamento
55%
Desenvolvimento do Jogador
75%
Prevenção de Lesões
60%
Implementação Tática
55%

Eventos Recentes

Participou de uma reunião de recrutamento 7d atrás
Participou de uma reunião de recrutamento 7d atrás
Participou de uma reunião de recrutamento 14d atrás
Participou de uma reunião de recrutamento 14d atrás
Participou de uma reunião de recrutamento 21d atrás
Participou de uma reunião de recrutamento 21d atrás
Participou de uma reunião de recrutamento 28d atrás
Participou de uma reunião de recrutamento 28d atrás

Monitorando agora

132
Jogador Clube Status Habilidade Confiança Observado Última observação Último voto
Edu Vitória Ativo 127 / 127 55% 1 21.06.2027 -
Ali Ahmed Norwich City Ativo 111 / 114 40% 1 29.05.2027 -
Mikkel Damsgaard Brentford Ativo 159 / 134 40% 1 29.05.2027 -
Jacques Ekomié Wrexham Ativo 147 / 134 40% 1 28.05.2027 -
Tyrell Malacia Derby County Ativo 131 / 140 40% 2 26.05.2027 -
Khéphren Thuram Juventus Ativo 169 / 161 40% 1 26.05.2027 -
Shea Charles Southampton Ativo 132 / 128 40% 1 23.05.2027 -
Moisés Caicedo Chelsea Ativo 187 / 159 40% 3 21.05.2027 -
Murillo Nottingham Forest Ativo 164 / 147 40% 1 17.05.2027 -
João Pedro Chelsea Ativo 162 / 147 40% 1 13.05.2027 -
Julio Enciso Ipswich Town Ativo 139 / 135 40% 1 13.05.2027 -
Dango Ouattara Brentford Ativo 164 / 147 40% 2 12.05.2027 -
Emile Smith Rowe Fulham Ativo 154 / 158 40% 1 12.05.2027 -
Jan Paul van Hecke Tottenham Ativo 171 / 168 40% 1 11.05.2027 Mais informações
Yankuba Minteh Brighton Ativo 139 / 154 40% 1 08.05.2027 -
Finn Azaz Southampton Ativo 126 / 118 40% 2 06.05.2027 -
Luís Henrique Inter Ativo 128 / 134 40% 1 06.05.2027 -
Kevin Schade Brentford Ativo 165 / 144 40% 1 05.05.2027 -
Zeidane Inoussa Swansea City Ativo 127 / 134 40% 1 05.05.2027 -
Bobby Thomas Coventry City Ativo 133 / 134 40% 2 02.05.2027 -
Assane Diao Como Ativo 158 / 161 40% 1 30.04.2027 -
Enzo Barrenechea Burnley Ativo 156 / 146 40% 1 30.04.2027 -
Maxence Lacroix Chelsea Ativo 160 / 140 40% 1 29.04.2027 -
Brooke Norton-Cuffy Hull City Ativo 148 / 149 40% 1 29.04.2027 -
Ramón Terrats Getafe Ativo 125 / 147 40% 2 28.04.2027 -
Amadou Onana Newcastle United Ativo 155 / 160 40% 1 28.04.2027 -
Jeon Jin-Woo Sheffield Wednesday Ativo 124 / 118 40% 1 26.04.2027 -
André Wolverhampton Ativo 138 / 143 40% 9 24.04.2027 -
Boubacar Kamara Aston Villa Ativo 156 / 163 40% 2 24.04.2027 Mais informações
Khvicha Kvaratskhelia Inter Ativo 155 / 154 40% 1 23.04.2027 -
Óscar Mingueza Crystal Palace Ativo 145 / 155 40% 1 21.04.2027 -
Koki Saito Queens Park Rangers Ativo 123 / 132 40% 2 20.04.2027 -
Ângelo Al-Nassr Ativo 124 / 123 40% 4 17.04.2027 -
Tino Livramento Newcastle United Ativo 162 / 162 40% 1 17.04.2027 -
Million Manhoef Stoke City Ativo 144 / 136 40% 1 14.04.2027 -
Carlos Vicente Udinese Ativo 146 / 143 40% 1 13.04.2027 -
Henry Mosquera Bragantino Ativo 143 / 132 40% 4 12.04.2027 -
Pablo Solari Spartak Moscow Ativo 145 / 134 40% 2 12.04.2027 -
Max Bird Birmingham Ativo 142 / 143 40% 1 11.04.2027 -
Tim Iroegbunam Hull City Ativo 153 / 127 40% 1 11.04.2027 -
Tariq Lamptey Queens Park Rangers Ativo 151 / 145 40% 2 06.04.2027 -
Isma Ruiz Córdoba Ativo 123 / 132 40% 1 05.04.2027 -
Roger François Udinese Ativo 127 / 145 40% 1 05.04.2027 -
Odilon Kossounou Atalanta Ativo 150 / 155 40% 1 03.04.2027 -
Callum Doyle Wrexham Ativo 114 / 128 40% 1 02.04.2027 -
Luke McNally Bristol City Ativo 134 / 133 40% 1 02.04.2027 -
Wesley AS Roma Ativo 146 / 158 40% 1 01.04.2027 -
Diego Costa Krasnodar Ativo 147 / 129 40% 1 01.04.2027 -
Ben Nelson Leicester City Ativo 145 / 127 40% 1 31.03.2027 -
Iván Fresneda Sporting CP Ativo 136 / 144 40% 1 31.03.2027 -
Geny Sporting CP Ativo 156 / 142 40% 1 30.03.2027 -
Maximiliano Araújo Sporting CP Ativo 144 / 152 40% 8 29.03.2027 Observar
Rodrigo Pinheiro Famalicao Ativo 133 / 127 40% 2 29.03.2027 -
Francis Amuzu Grêmio Ativo 123 / 133 40% 3 25.03.2027 -
Denis Huseinbašić Braga Ativo 122 / 127 40% 1 22.03.2027 -
Sikou Niakaté Braga Ativo 124 / 129 40% 1 20.03.2027 -
Francisco Moura Penafiel Ativo 151 / 150 40% 1 16.03.2027 -
Alberto Costa Porto Ativo 152 / 147 40% 5 15.03.2027 -
Pedro Henrique Shakhtar Ativo 140 / 143 40% 1 15.03.2027 -
Rafik Guitane Estoril Praia Ativo 139 / 128 40% 1 09.03.2027 -
João Gomes Aston Villa Ativo 155 / 148 40% 2 08.03.2027 -
Welington Southampton Ativo 143 / 117 40% 3 08.03.2027 -
William Gomes Porto Ativo 156 / 138 40% 1 03.03.2027 -
Gerónimo Rivera Al Wahda Ativo 115 / 115 40% 1 02.03.2027 -
Borja Sainz Porto Ativo 140 / 158 40% 1 02.03.2027 -
Sergi Altimira Sporting CP Ativo 137 / 127 40% 1 28.02.2027 -
João Simões Sporting CP Ativo 132 / 145 40% 1 28.02.2027 -
Vitinho Botafogo Ativo 131 / 136 40% 2 17.02.2027 -
Agustín Giay Palmeiras Ativo 136 / 123 40% 1 10.02.2027 -
Enzo Loiodice KAA Gent Ativo 115 / 127 40% 2 09.12.2026 -
Ronald Swansea City Ativo 109 / 113 40% 1 09.12.2026 -
Nino Zenit Ativo 130 / 130 40% 3 30.11.2026 -
Lazar Carević Famalicao Ativo 129 / 137 40% 2 29.11.2026 -
Mauro Silveira Junior Ativo 118 / 123 40% 1 29.11.2026 -
Danilo Botafogo Ativo 137 / 129 40% 2 27.11.2026 -
Samuel Dahl Benfica Ativo 121 / 153 40% 1 27.11.2026 -
Lucas Torreira Galatasaray Perdido 147 / 158 40% 1 25.11.2026 -
Carl Rushworth Coventry City Ativo 135 / 123 40% 2 18.11.2026 -
Matheus Mendes Alverca Ativo 108 / 121 40% 4 18.11.2026 -
Hwang In-Beom Porto Ativo 138 / 156 40% 1 18.11.2026 -
Gianluca Prestianni Benfica Ativo 137 / 141 40% 1 17.11.2026 -
Lautaro Amadé Defensa y Justicia Ativo 124 / 113 40% 3 14.11.2026 -
Patrick Sequeira Casa Pia Ativo 129 / 131 40% 3 13.11.2026 -
Nathan Trott Cardiff City Ativo 124 / 111 40% 2 12.11.2026 -
Senne Lammens Manchester United Ativo 132 / 139 40% 2 11.11.2026 -
Lucas Veríssimo Santos Ativo 134 / 131 40% 2 11.11.2026 -
Victor Aznar Cádiz Ativo 113 / 111 40% 1 09.11.2026 -
Juan Diego Castillo Vitoria Guimaraes Ativo 101 / 126 40% 1 09.11.2026 -
Robert FC Copenhagen Ativo 145 / 118 40% 1 08.11.2026 -
Marquinhos Spartak Moscow Ativo 131 / 138 40% 1 08.11.2026 -
Marco Carnesecchi Torino Ativo 151 / 161 40% 1 07.11.2026 -
Felipe Parra Stade Brestois Ativo 125 / 109 40% 4 06.11.2026 -
Antony Portland Timbers Ativo 135 / 127 40% 1 02.11.2026 -
Vitor Carvalho Braga Ativo 150 / 125 40% 2 30.10.2026 -
Abner Vinicius Olympique Lyonnais Ativo 128 / 129 40% 1 30.10.2026 -
Gabriel Silva Braga Ativo 108 / 132 40% 2 29.10.2026 -
Cezary Miszta Rio Ave Ativo 110 / 139 40% 4 28.10.2026 -
Anatolii Trubin Tottenham Ativo 162 / 163 40% 1 28.10.2026 -
Mauro Júnior PSV Ativo 126 / 137 40% 1 25.10.2026 -
Vitinho Internacional Ativo 116 / 130 40% 1 24.10.2026 -
Figueiredo Alverca Ativo 118 / 118 40% 1 23.10.2026 -
Gonzalo Crettaz NEC Ativo 111 / 135 40% 1 22.10.2026 -
Adriel Torreense Ativo 101 / 107 40% 2 20.10.2026 -
Alan Lescano Argentinos Juniors Ativo 120 / 123 40% 1 19.10.2026 -
Alan Benfica Ativo 146 / 138 40% 1 16.10.2026 -
Evander FC Cincinnati Ativo 136 / 145 40% 1 13.10.2026 -
Alan Velasco Boca Juniors Ativo 122 / 121 40% 1 10.10.2026 -
André Luiz Sporting Kansas City Ativo 129 / 128 40% 1 10.10.2026 -
Léo Pereira Flamengo Ativo 137 / 136 40% 2 09.10.2026 -
Gabriel Pirani San Diego Football Club Ativo 143 / 140 40% 1 09.10.2026 -
Joaquín Pereyra Minnesota United FC Ativo 134 / 142 40% 1 06.10.2026 -
Kostantis Tzolakis Hull City Ativo 137 / 138 40% 1 03.10.2026 -
Bento Lokomotiv Moscow Ativo 121 / 140 40% 2 01.10.2026 -
Đorđe Petrović Bournemouth Ativo 163 / 153 40% 1 01.10.2026 -
Felipe Zenobio Tigre Ativo 122 / 122 40% 3 28.09.2026 -
Michael Cooper Sheffield United Ativo 128 / 120 40% 2 28.09.2026 -
Luciano Juba Bahia Ativo 126 / 125 40% 1 28.09.2026 -
Andrew Flamengo Ativo 141 / 140 40% 2 23.09.2026 -
Gabriel Brazão Santos Ativo 141 / 133 40% 3 22.09.2026 -
Jan Bednarek Porto Ativo 154 / 148 40% 2 22.09.2026 -
Víctor Gómez Braga Ativo 130 / 126 40% 1 22.09.2026 -
Bernardo Fontes Braga Ativo 124 / 116 40% 3 18.09.2026 -
Grégoire Coudert Burnley Ativo 110 / 133 40% 1 18.09.2026 -
Victor Froholdt Porto Ativo 141 / 167 40% 1 18.09.2026 -
Roman Celentano FC Cincinnati Ativo 137 / 119 40% 2 16.09.2026 -
Mathías Villasanti Grêmio Ativo 134 / 136 40% 1 16.09.2026 -
Robin Roefs Sunderland Ativo 147 / 153 40% 1 14.09.2026 -
Radek Vítek Middlesbrough Ativo 115 / 125 40% 1 31.08.2026 -
Mark Travers Everton Ativo 121 / 126 40% 1 21.08.2026 -
Matt Freese New York City Ativo 139 / 139 40% 1 06.08.2026 -
Javi Puado Espanyol Ativo 137 / 154 40% 1 01.08.2026 -
Alexander Sørloth Atlético Madrid Ativo 130 / 140 40% 1 01.08.2026 -